sensor_id;sensor_type;location;lat;lon;timestamp;pressure;altitude;pressure_sealevel;temperature;humidity
32083;BME280;18597;48.328;7.932;2023-07-20T00:01:15;99393.28;;;20.07;nan
32083;BME280;18597;48.328;7.932;2023-07-20T00:03:41;99394.66;;;19.97;nan
32083;BME280;18597;48.328;7.932;2023-07-20T00:06:08;99398.16;;;19.90;nan
32083;BME280;18597;48.328;7.932;2023-07-20T00:08:33;99398.75;;;19.86;nan
32083;BME280;18597;48.328;7.932;2023-07-20T00:10:59;99398.50;;;19.81;nan
32083;BME280;18597;48.328;7.932;2023-07-20T00:13:25;99396.31;;;19.70;nan
32083;BME280;18597;48.328;7.932;2023-07-20T00:15:52;99398.13;;;19.62;nan
32083;BME280;18597;48.328;7.932;2023-07-20T00:18:18;99394.69;;;19.54;nan
32083;BME280;18597;48.328;7.932;2023-07-20T00:20:47;99400.44;;;19.44;nan
32083;BME280;18597;48.328;7.932;2023-07-20T00:23:13;99406.84;;;19.36;nan
32083;BME280;18597;48.328;7.932;2023-07-20T00:25:39;99405.59;;;19.39;nan
32083;BME280;18597;48.328;7.932;2023-07-20T00:28:04;99400.69;;;19.28;nan
32083;BME280;18597;48.328;7.932;2023-07-20T00:30:30;99397.22;;;19.12;nan
32083;BME280;18597;48.328;7.932;2023-07-20T00:32:56;99406.97;;;18.92;nan
32083;BME280;18597;48.328;7.932;2023-07-20T00:35:22;99405.22;;;18.84;nan
32083;BME280;18597;48.328;7.932;2023-07-20T00:37:47;99406.06;;;18.70;nan
32083;BME280;18597;48.328;7.932;2023-07-20T00:40:13;99406.97;;;18.63;nan
32083;BME280;18597;48.328;7.932;2023-07-20T00:42:39;99401.19;;;18.51;nan
32083;BME280;18597;48.328;7.932;2023-07-20T00:45:06;99397.94;;;18.55;nan
32083;BME280;18597;48.328;7.932;2023-07-20T00:47:32;99405.22;;;18.55;nan
32083;BME280;18597;48.328;7.932;2023-07-20T00:49:58;99399.44;;;18.73;nan
32083;BME280;18597;48.328;7.932;2023-07-20T00:52:25;99406.53;;;18.74;nan
32083;BME280;18597;48.328;7.932;2023-07-20T00:54:52;99408.13;;;18.53;nan
32083;BME280;18597;48.328;7.932;2023-07-20T00:57:21;99401.13;;;18.44;nan
32083;BME280;18597;48.328;7.932;2023-07-20T00:59:49;99398.50;;;18.36;nan
32083;BME280;18597;48.328;7.932;2023-07-20T01:02:15;99403.16;;;18.42;nan
32083;BME280;18597;48.328;7.932;2023-07-20T01:04:41;99402.06;;;18.51;nan
32083;BME280;18597;48.328;7.932;2023-07-20T01:07:17;99397.94;;;18.55;nan
32083;BME280;18597;48.328;7.932;2023-07-20T01:10:14;99394.41;;;18.55;nan
32083;BME280;18597;48.328;7.932;2023-07-20T01:12:48;99390.56;;;18.49;nan
32083;BME280;18597;48.328;7.932;2023-07-20T01:15:17;99395.16;;;18.34;nan
32083;BME280;18597;48.328;7.932;2023-07-20T01:17:42;99394.69;;;18.30;nan
32083;BME280;18597;48.328;7.932;2023-07-20T01:20:13;99392.44;;;18.19;nan
32083;BME280;18597;48.328;7.932;2023-07-20T01:23:27;99400.66;;;18.11;nan
32083;BME280;18597;48.328;7.932;2023-07-20T01:29:35;99406.75;;;17.90;95.09
32083;BME280;18597;48.328;7.932;2023-07-20T01:32:09;99392.63;;;18.03;92.42
32083;BME280;18597;48.328;7.932;2023-07-20T01:34:36;99402.56;;;17.88;93.00
32083;BME280;18597;48.328;7.932;2023-07-20T01:37:03;99402.00;;;17.78;94.62
32083;BME280;18597;48.328;7.932;2023-07-20T01:39:30;99402.22;;;17.68;96.26
32083;BME280;18597;48.328;7.932;2023-07-20T01:41:57;99400.19;;;17.70;96.89
32083;BME280;18597;48.328;7.932;2023-07-20T01:44:23;99390.41;;;17.69;97.80
32083;BME280;18597;48.328;7.932;2023-07-20T01:46:49;99393.78;;;17.71;98.43
32083;BME280;18597;48.328;7.932;2023-07-20T01:49:15;99386.16;;;17.74;97.28
32083;BME280;18597;48.328;7.932;2023-07-20T01:51:41;99395.13;;;17.67;96.12
32083;BME280;18597;48.328;7.932;2023-07-20T01:54:06;99386.06;;;17.60;96.36
32083;BME280;18597;48.328;7.932;2023-07-20T01:56:32;99397.66;;;17.45;97.43
32083;BME280;18597;48.328;7.932;2023-07-20T01:58:59;99385.63;;;17.33;98.26
32083;BME280;18597;48.328;7.932;2023-07-20T02:01:24;99385.03;;;17.23;97.34
32083;BME280;18597;48.328;7.932;2023-07-20T02:03:50;99389.41;;;17.24;96.19
32083;BME280;18597;48.328;7.932;2023-07-20T02:06:16;99386.84;;;17.08;97.33
32083;BME280;18597;48.328;7.932;2023-07-20T02:08:42;99388.56;;;17.01;97.15
32083;BME280;18597;48.328;7.932;2023-07-20T02:11:08;99394.13;;;16.99;98.44
32083;BME280;18597;48.328;7.932;2023-07-20T02:13:35;99393.72;;;17.10;100.00
32083;BME280;18597;48.328;7.932;2023-07-20T02:16:01;99398.47;;;17.08;100.00
32083;BME280;18597;48.328;7.932;2023-07-20T02:18:27;99395.47;;;17.03;100.00
32083;BME280;18597;48.328;7.932;2023-07-20T02:20:53;99401.25;;;16.92;100.00
32083;BME280;18597;48.328;7.932;2023-07-20T02:23:20;99405.28;;;16.96;100.00
32083;BME280;18597;48.328;7.932;2023-07-20T02:25:46;99404.78;;;16.92;100.00
32083;BME280;18597;48.328;7.932;2023-07-20T02:28:14;99397.75;;;16.83;100.00
32083;BME280;18597;48.328;7.932;2023-07-20T02:30:40;99400.63;;;16.82;100.00
32083;BME280;18597;48.328;7.932;2023-07-20T02:33:07;99399.00;;;16.73;100.00
32083;BME280;18597;48.328;7.932;2023-07-20T02:35:33;99396.13;;;16.74;100.00
32083;BME280;18597;48.328;7.932;2023-07-20T02:37:59;99396.31;;;16.64;100.00
32083;BME280;18597;48.328;7.932;2023-07-20T02:40:24;99397.50;;;16.62;100.00
32083;BME280;18597;48.328;7.932;2023-07-20T02:42:50;99399.19;;;16.63;100.00
32083;BME280;18597;48.328;7.932;2023-07-20T02:45:16;99398.22;;;16.56;100.00
32083;BME280;18597;48.328;7.932;2023-07-20T02:47:42;99400.59;;;16.51;100.00
32083;BME280;18597;48.328;7.932;2023-07-20T02:50:09;99395.75;;;16.38;100.00
32083;BME280;18597;48.328;7.932;2023-07-20T02:52:34;99395.75;;;16.30;100.00
32083;BME280;18597;48.328;7.932;2023-07-20T02:55:00;99398.97;;;16.33;100.00
32083;BME280;18597;48.328;7.932;2023-07-20T02:57:26;99403.69;;;16.31;100.00
32083;BME280;18597;48.328;7.932;2023-07-20T02:59:52;99407.22;;;16.40;100.00
32083;BME280;18597;48.328;7.932;2023-07-20T03:02:19;99399.13;;;16.40;100.00
32083;BME280;18597;48.328;7.932;2023-07-20T03:04:44;99405.47;;;16.47;100.00
32083;BME280;18597;48.328;7.932;2023-07-20T03:07:10;99402.94;;;16.46;100.00
32083;BME280;18597;48.328;7.932;2023-07-20T03:09:36;99401.56;;;16.58;100.00
32083;BME280;18597;48.328;7.932;2023-07-20T03:12:02;99405.97;;;16.51;100.00
32083;BME280;18597;48.328;7.932;2023-07-20T03:14:30;99400.59;;;16.51;100.00
32083;BME280;18597;48.328;7.932;2023-07-20T03:16:55;99401.91;;;16.55;100.00
32083;BME280;18597;48.328;7.932;2023-07-20T03:19:21;99409.28;;;16.61;100.00
32083;BME280;18597;48.328;7.932;2023-07-20T03:21:47;99405.94;;;16.59;100.00
32083;BME280;18597;48.328;7.932;2023-07-20T03:24:13;99410.25;;;16.76;100.00
32083;BME280;18597;48.328;7.932;2023-07-20T03:26:39;99406.09;;;16.65;100.00
32083;BME280;18597;48.328;7.932;2023-07-20T03:29:05;99409.63;;;16.66;100.00
32083;BME280;18597;48.328;7.932;2023-07-20T03:31:32;99406.97;;;16.58;100.00
32083;BME280;18597;48.328;7.932;2023-07-20T03:33:58;99413.75;;;16.46;100.00
32083;BME280;18597;48.328;7.932;2023-07-20T03:36:24;99418.09;;;16.55;100.00
32083;BME280;18597;48.328;7.932;2023-07-20T03:38:49;99412.69;;;16.55;100.00
32083;BME280;18597;48.328;7.932;2023-07-20T03:41:15;99413.91;;;16.44;100.00
32083;BME280;18597;48.328;7.932;2023-07-20T03:43:42;99414.75;;;16.45;100.00
32083;BME280;18597;48.328;7.932;2023-07-20T03:46:08;99420.81;;;16.47;100.00
32083;BME280;18597;48.328;7.932;2023-07-20T03:48:34;99419.13;;;16.46;100.00
32083;BME280;18597;48.328;7.932;2023-07-20T03:50:59;99414.72;;;16.53;100.00
32083;BME280;18597;48.328;7.932;2023-07-20T03:53:26;99414.53;;;16.54;100.00
32083;BME280;18597;48.328;7.932;2023-07-20T03:55:54;99416.06;;;16.57;100.00
32083;BME280;18597;48.328;7.932;2023-07-20T03:58:20;99414.91;;;16.51;100.00
32083;BME280;18597;48.328;7.932;2023-07-20T04:00:49;99418.72;;;16.65;100.00
32083;BME280;18597;48.328;7.932;2023-07-20T04:03:17;99418.22;;;16.61;100.00
32083;BME280;18597;48.328;7.932;2023-07-20T04:05:44;99415.53;;;16.70;100.00
32083;BME280;18597;48.328;7.932;2023-07-20T04:08:10;99417.38;;;16.61;100.00
32083;BME280;18597;48.328;7.932;2023-07-20T04:10:38;99418.53;;;16.75;100.00
32083;BME280;18597;48.328;7.932;2023-07-20T04:13:04;99414.69;;;16.69;100.00
32083;BME280;18597;48.328;7.932;2023-07-20T04:15:31;99415.66;;;16.76;100.00
32083;BME280;18597;48.328;7.932;2023-07-20T04:17:57;99426.44;;;16.76;100.00
32083;BME280;18597;48.328;7.932;2023-07-20T04:20:23;99427.13;;;17.09;100.00
32083;BME280;18597;48.328;7.932;2023-07-20T04:22:50;99428.38;;;16.99;100.00
32083;BME280;18597;48.328;7.932;2023-07-20T04:25:17;99423.81;;;16.99;100.00
32083;BME280;18597;48.328;7.932;2023-07-20T04:27:43;99425.31;;;17.02;100.00
32083;BME280;18597;48.328;7.932;2023-07-20T04:30:10;99423.03;;;17.13;100.00
32083;BME280;18597;48.328;7.932;2023-07-20T04:32:37;99432.31;;;17.19;100.00
32083;BME280;18597;48.328;7.932;2023-07-20T04:35:06;99429.72;;;17.26;100.00
32083;BME280;18597;48.328;7.932;2023-07-20T04:37:33;99445.16;;;17.40;100.00
32083;BME280;18597;48.328;7.932;2023-07-20T04:39:59;99441.06;;;17.44;100.00
32083;BME280;18597;48.328;7.932;2023-07-20T04:42:25;99442.66;;;17.61;100.00
32083;BME280;18597;48.328;7.932;2023-07-20T04:44:50;99431.25;;;17.74;98.76
32083;BME280;18597;48.328;7.932;2023-07-20T04:47:16;99440.56;;;17.71;99.52
32083;BME280;18597;48.328;7.932;2023-07-20T04:49:42;99443.28;;;17.63;100.00
32083;BME280;18597;48.328;7.932;2023-07-20T04:52:08;99446.97;;;17.70;99.01
32083;BME280;18597;48.328;7.932;2023-07-20T04:54:34;99439.19;;;17.90;95.88
32083;BME280;18597;48.328;7.932;2023-07-20T04:56:59;99451.63;;;17.99;95.45
32083;BME280;18597;48.328;7.932;2023-07-20T04:59:25;99445.84;;;18.02;95.86
32083;BME280;18597;48.328;7.932;2023-07-20T05:01:51;99440.28;;;18.19;93.86
32083;BME280;18597;48.328;7.932;2023-07-20T05:04:17;99434.34;;;18.38;91.79
32083;BME280;18597;48.328;7.932;2023-07-20T05:06:43;99439.06;;;18.51;90.22
32083;BME280;18597;48.328;7.932;2023-07-20T05:09:09;99440.22;;;18.71;89.18
32083;BME280;18597;48.328;7.932;2023-07-20T05:11:35;99440.72;;;18.96;86.26
32083;BME280;18597;48.328;7.932;2023-07-20T05:14:00;99443.88;;;19.15;83.56
32083;BME280;18597;48.328;7.932;2023-07-20T05:16:26;99441.06;;;19.23;83.37
32083;BME280;18597;48.328;7.932;2023-07-20T05:18:52;99442.13;;;19.43;82.71
32083;BME280;18597;48.328;7.932;2023-07-20T05:21:18;99431.19;;;19.73;79.04
32083;BME280;18597;48.328;7.932;2023-07-20T05:23:44;99431.63;;;20.04;77.57
32083;BME280;18597;48.328;7.932;2023-07-20T05:26:10;99424.66;;;20.51;73.85
32083;BME280;18597;48.328;7.932;2023-07-20T05:28:36;99432.97;;;20.84;70.48
32083;BME280;18597;48.328;7.932;2023-07-20T05:31:03;99430.16;;;21.12;66.12
32083;BME280;18597;48.328;7.932;2023-07-20T05:33:29;99429.38;;;21.25;65.57
32083;BME280;18597;48.328;7.932;2023-07-20T05:35:55;99435.25;;;21.35;65.15
32083;BME280;18597;48.328;7.932;2023-07-20T05:38:20;99434.66;;;21.53;64.45
32083;BME280;18597;48.328;7.932;2023-07-20T05:40:46;99424.44;;;21.48;64.17
32083;BME280;18597;48.328;7.932;2023-07-20T05:43:12;99437.41;;;21.66;63.33
32083;BME280;18597;48.328;7.932;2023-07-20T05:45:43;99433.66;;;21.74;62.31
32083;BME280;18597;48.328;7.932;2023-07-20T05:48:10;99439.72;;;21.82;62.40
32083;BME280;18597;48.328;7.932;2023-07-20T05:50:38;99442.66;;;21.87;62.90
32083;BME280;18597;48.328;7.932;2023-07-20T05:53:07;99432.81;;;22.06;59.99
32083;BME280;18597;48.328;7.932;2023-07-20T05:55:33;99427.81;;;22.10;59.06
32083;BME280;18597;48.328;7.932;2023-07-20T05:57:58;99431.53;;;22.49;58.32
32083;BME280;18597;48.328;7.932;2023-07-20T06:00:24;99429.13;;;22.79;57.53
32083;BME280;18597;48.328;7.932;2023-07-20T06:02:53;99429.66;;;23.14;55.77
32083;BME280;18597;48.328;7.932;2023-07-20T06:05:21;99430.72;;;23.44;53.27
32083;BME280;18597;48.328;7.932;2023-07-20T06:07:47;99434.16;;;23.65;52.19
32083;BME280;18597;48.328;7.932;2023-07-20T06:10:13;99430.50;;;23.77;50.24
32083;BME280;18597;48.328;7.932;2023-07-20T06:12:39;99438.19;;;23.87;50.34
32083;BME280;18597;48.328;7.932;2023-07-20T06:15:09;99429.19;;;24.12;48.95
32083;BME280;18597;48.328;7.932;2023-07-20T06:17:49;99425.41;;;24.38;48.10
32083;BME280;18597;48.328;7.932;2023-07-20T06:20:15;99433.28;;;24.46;47.36
32083;BME280;18597;48.328;7.932;2023-07-20T06:22:40;99425.94;;;24.46;48.09
32083;BME280;18597;48.328;7.932;2023-07-20T06:25:06;99420.78;;;24.56;47.81
32083;BME280;18597;48.328;7.932;2023-07-20T06:27:32;99435.88;;;24.77;46.28
32083;BME280;18597;48.328;7.932;2023-07-20T06:29:58;99436.25;;;24.99;47.13
32083;BME280;18597;48.328;7.932;2023-07-20T06:32:24;99436.03;;;25.49;44.37
32083;BME280;18597;48.328;7.932;2023-07-20T06:34:50;99437.88;;;25.37;44.80
32083;BME280;18597;48.328;7.932;2023-07-20T06:37:15;99433.31;;;25.61;44.23
32083;BME280;18597;48.328;7.932;2023-07-20T06:39:41;99427.59;;;25.92;43.88
32083;BME280;18597;48.328;7.932;2023-07-20T06:42:07;99427.00;;;26.37;42.79
32083;BME280;18597;48.328;7.932;2023-07-20T06:44:33;99429.75;;;27.13;41.10
32083;BME280;18597;48.328;7.932;2023-07-20T06:46:59;99429.75;;;27.41;40.18
32083;BME280;18597;48.328;7.932;2023-07-20T06:49:26;99426.88;;;27.48;39.87
32083;BME280;18597;48.328;7.932;2023-07-20T06:51:53;99433.09;;;27.43;39.88
32083;BME280;18597;48.328;7.932;2023-07-20T06:54:19;99425.38;;;27.57;40.14
32083;BME280;18597;48.328;7.932;2023-07-20T06:56:45;99422.88;;;28.01;39.44
32083;BME280;18597;48.328;7.932;2023-07-20T06:59:11;99425.56;;;28.68;38.37
32083;BME280;18597;48.328;7.932;2023-07-20T07:01:36;99423.25;;;29.47;37.09
32083;BME280;18597;48.328;7.932;2023-07-20T07:04:02;99415.72;;;30.34;35.43
32083;BME280;18597;48.328;7.932;2023-07-20T07:06:29;99420.16;;;32.52;31.90
32083;BME280;18597;48.328;7.932;2023-07-20T07:08:55;99417.25;;;33.91;29.31
32083;BME280;18597;48.328;7.932;2023-07-20T07:11:21;99407.09;;;34.40;28.36
32083;BME280;18597;48.328;7.932;2023-07-20T07:13:47;99406.25;;;35.54;26.88
32083;BME280;18597;48.328;7.932;2023-07-20T07:16:16;99387.97;;;36.32;26.06
32083;BME280;18597;48.328;7.932;2023-07-20T07:18:45;99402.84;;;37.23;24.75
32083;BME280;18597;48.328;7.932;2023-07-20T07:21:11;99400.97;;;37.33;24.26
32083;BME280;18597;48.328;7.932;2023-07-20T07:23:39;99396.50;;;37.82;23.38
32083;BME280;18597;48.328;7.932;2023-07-20T07:26:05;99406.34;;;37.15;23.70
32083;BME280;18597;48.328;7.932;2023-07-20T07:28:31;99406.47;;;36.83;24.31
32083;BME280;18597;48.328;7.932;2023-07-20T07:30:58;99404.75;;;36.87;23.52
32083;BME280;18597;48.328;7.932;2023-07-20T07:33:24;99402.63;;;35.91;24.01
32083;BME280;18597;48.328;7.932;2023-07-20T07:35:51;99395.84;;;38.07;22.04
32083;BME280;18597;48.328;7.932;2023-07-20T07:38:19;99401.75;;;38.06;21.86
32083;BME280;18597;48.328;7.932;2023-07-20T07:40:45;99410.28;;;37.14;23.04
32083;BME280;18597;48.328;7.932;2023-07-20T07:43:12;99406.91;;;36.76;23.38
32083;BME280;18597;48.328;7.932;2023-07-20T07:45:39;99408.63;;;37.27;22.82
32083;BME280;18597;48.328;7.932;2023-07-20T07:48:06;99413.19;;;36.82;23.41
32083;BME280;18597;48.328;7.932;2023-07-20T07:50:33;99413.28;;;35.84;23.93
32083;BME280;18597;48.328;7.932;2023-07-20T07:53:00;99411.13;;;37.01;23.22
32083;BME280;18597;48.328;7.932;2023-07-20T07:55:26;99406.16;;;38.69;20.94
32083;BME280;18597;48.328;7.932;2023-07-20T07:57:53;99406.47;;;40.45;19.36
32083;BME280;18597;48.328;7.932;2023-07-20T08:00:19;99404.84;;;42.53;17.46
32083;BME280;18597;48.328;7.932;2023-07-20T08:02:45;99406.22;;;43.57;16.77
32083;BME280;18597;48.328;7.932;2023-07-20T08:05:14;99397.81;;;44.29;16.04
32083;BME280;18597;48.328;7.932;2023-07-20T08:07:40;99385.53;;;45.93;14.88
32083;BME280;18597;48.328;7.932;2023-07-20T08:10:07;99384.47;;;46.67;14.30
32083;BME280;18597;48.328;7.932;2023-07-20T08:12:33;99383.03;;;47.03;13.98
32083;BME280;18597;48.328;7.932;2023-07-20T08:14:59;99376.69;;;47.40;13.62
32083;BME280;18597;48.328;7.932;2023-07-20T08:17:25;99385.19;;;45.37;15.00
32083;BME280;18597;48.328;7.932;2023-07-20T08:19:51;99379.09;;;45.19;14.91
32083;BME280;18597;48.328;7.932;2023-07-20T08:22:16;99388.06;;;46.64;14.03
32083;BME280;18597;48.328;7.932;2023-07-20T08:24:43;99378.72;;;48.51;13.02
32083;BME280;18597;48.328;7.932;2023-07-20T08:27:09;99370.66;;;49.95;11.93
32083;BME280;18597;48.328;7.932;2023-07-20T08:29:45;99374.78;;;50.30;12.05
32083;BME280;18597;48.328;7.932;2023-07-20T08:32:11;99368.63;;;52.15;10.87
32083;BME280;18597;48.328;7.932;2023-07-20T08:34:39;99368.09;;;49.61;12.12
32083;BME280;18597;48.328;7.932;2023-07-20T08:37:05;99368.34;;;46.22;14.40
32083;BME280;18597;48.328;7.932;2023-07-20T08:39:31;99369.28;;;43.18;16.60
32083;BME280;18597;48.328;7.932;2023-07-20T08:42:00;99366.97;;;40.30;18.58
32083;BME280;18597;48.328;7.932;2023-07-20T08:44:30;99368.00;;;38.87;19.90
32083;BME280;18597;48.328;7.932;2023-07-20T08:46:58;99370.22;;;38.05;20.30
32083;BME280;18597;48.328;7.932;2023-07-20T08:49:24;99369.38;;;36.87;21.88
32083;BME280;18597;48.328;7.932;2023-07-20T08:51:52;99371.84;;;36.01;22.46
32083;BME280;18597;48.328;7.932;2023-07-20T08:54:18;99367.88;;;35.37;23.37
32083;BME280;18597;48.328;7.932;2023-07-20T08:56:45;99368.22;;;34.93;23.37
32083;BME280;18597;48.328;7.932;2023-07-20T08:59:17;99370.22;;;34.87;22.76
32083;BME280;18597;48.328;7.932;2023-07-20T09:01:44;99355.44;;;37.01;21.62
32083;BME280;18597;48.328;7.932;2023-07-20T09:04:11;99365.97;;;38.39;19.92
32083;BME280;18597;48.328;7.932;2023-07-20T09:06:38;99365.53;;;37.69;20.56
32083;BME280;18597;48.328;7.932;2023-07-20T09:09:03;99359.31;;;36.18;21.73
32083;BME280;18597;48.328;7.932;2023-07-20T09:11:29;99357.06;;;34.74;23.09
32083;BME280;18597;48.328;7.932;2023-07-20T09:14:05;99366.59;;;33.47;24.11
32083;BME280;18597;48.328;7.932;2023-07-20T09:16:31;99359.38;;;33.06;25.09
32083;BME280;18597;48.328;7.932;2023-07-20T09:18:58;99364.44;;;32.79;25.13
32083;BME280;18597;48.328;7.932;2023-07-20T09:21:29;99360.53;;;31.80;26.70
32083;BME280;18597;48.328;7.932;2023-07-20T09:23:57;99359.34;;;31.25;26.98
32083;BME280;18597;48.328;7.932;2023-07-20T09:26:23;99352.31;;;30.81;27.50
32083;BME280;18597;48.328;7.932;2023-07-20T09:28:52;99346.31;;;31.10;28.38
32083;BME280;18597;48.328;7.932;2023-07-20T09:31:20;99340.59;;;31.32;27.51
32083;BME280;18597;48.328;7.932;2023-07-20T09:33:47;99352.94;;;31.09;27.62
32083;BME280;18597;48.328;7.932;2023-07-20T09:36:13;99346.88;;;31.02;27.44
32083;BME280;18597;48.328;7.932;2023-07-20T09:38:42;99340.75;;;30.89;27.02
32083;BME280;18597;48.328;7.932;2023-07-20T09:41:14;99343.50;;;30.84;27.46
32083;BME280;18597;48.328;7.932;2023-07-20T09:43:41;99333.25;;;30.70;28.21
32083;BME280;18597;48.328;7.932;2023-07-20T09:46:07;99339.22;;;30.56;28.83
32083;BME280;18597;48.328;7.932;2023-07-20T09:48:34;99332.59;;;30.52;28.53
32083;BME280;18597;48.328;7.932;2023-07-20T09:51:00;99326.91;;;30.69;28.56
32083;BME280;18597;48.328;7.932;2023-07-20T09:53:27;99334.63;;;30.72;28.10
32083;BME280;18597;48.328;7.932;2023-07-20T09:55:54;99322.13;;;30.54;28.92
32083;BME280;18597;48.328;7.932;2023-07-20T09:58:21;99323.25;;;30.53;28.90
32083;BME280;18597;48.328;7.932;2023-07-20T10:00:50;99317.72;;;30.53;29.46
32083;BME280;18597;48.328;7.932;2023-07-20T10:03:23;99307.88;;;30.73;28.50
32083;BME280;18597;48.328;7.932;2023-07-20T10:05:57;99310.13;;;30.81;28.50
32083;BME280;18597;48.328;7.932;2023-07-20T10:08:25;99309.63;;;30.99;28.30
32083;BME280;18597;48.328;7.932;2023-07-20T10:10:51;99317.44;;;30.60;28.68
32083;BME280;18597;48.328;7.932;2023-07-20T10:13:25;99312.97;;;30.44;29.13
32083;BME280;18597;48.328;7.932;2023-07-20T10:15:59;99311.31;;;30.43;28.79
32083;BME280;18597;48.328;7.932;2023-07-20T10:18:51;99310.22;;;30.44;29.33
32083;BME280;18597;48.328;7.932;2023-07-20T10:21:21;99304.09;;;30.26;29.00
32083;BME280;18597;48.328;7.932;2023-07-20T10:23:50;99309.88;;;30.30;28.80
32083;BME280;18597;48.328;7.932;2023-07-20T10:26:16;99302.97;;;29.85;27.97
32083;BME280;18597;48.328;7.932;2023-07-20T10:28:42;99302.47;;;29.24;29.57
32083;BME280;18597;48.328;7.932;2023-07-20T10:31:09;99307.25;;;28.36;29.92
32083;BME280;18597;48.328;7.932;2023-07-20T10:33:37;99294.34;;;28.85;30.72
32083;BME280;18597;48.328;7.932;2023-07-20T10:36:05;99294.38;;;29.71;29.45
32083;BME280;18597;48.328;7.932;2023-07-20T10:41:34;99307.34;;;30.81;28.50
32083;BME280;18597;48.328;7.932;2023-07-20T10:44:06;99301.06;;;31.11;28.14
32083;BME280;18597;48.328;7.932;2023-07-20T10:46:43;99297.56;;;31.46;27.30
32083;BME280;18597;48.328;7.932;2023-07-20T10:49:11;99298.66;;;31.75;26.39
32083;BME280;18597;48.328;7.932;2023-07-20T10:51:46;99297.00;;;31.80;26.22
32083;BME280;18597;48.328;7.932;2023-07-20T10:56:51;99295.06;;;31.70;26.98
32083;BME280;18597;48.328;7.932;2023-07-20T10:59:36;99293.13;;;31.70;26.64
32083;BME280;18597;48.328;7.932;2023-07-20T11:02:07;99288.16;;;31.62;26.88
32083;BME280;18597;48.328;7.932;2023-07-20T11:04:44;99284.28;;;31.28;27.31
32083;BME280;18597;48.328;7.932;2023-07-20T11:07:14;99281.53;;;31.48;26.71
32083;BME280;18597;48.328;7.932;2023-07-20T11:09:40;99277.94;;;31.68;26.53
32083;BME280;18597;48.328;7.932;2023-07-20T11:12:14;99282.31;;;31.94;26.95
32083;BME280;18597;48.328;7.932;2023-07-20T11:14:52;99271.53;;;32.08;25.33
32083;BME280;18597;48.328;7.932;2023-07-20T11:17:19;99272.38;;;31.88;26.09
32083;BME280;18597;48.328;7.932;2023-07-20T11:19:49;99273.22;;;31.99;25.51
32083;BME280;18597;48.328;7.932;2023-07-20T11:22:17;99265.47;;;32.01;25.26
32083;BME280;18597;48.328;7.932;2023-07-20T11:24:43;99251.59;;;32.16;26.02
32083;BME280;18597;48.328;7.932;2023-07-20T11:27:09;99259.06;;;32.11;25.19
32083;BME280;18597;48.328;7.932;2023-07-20T11:29:37;99250.03;;;31.90;26.57
32083;BME280;18597;48.328;7.932;2023-07-20T11:32:04;99247.28;;;31.85;26.52
32083;BME280;18597;48.328;7.932;2023-07-20T11:34:31;99245.09;;;31.82;26.55
32083;BME280;18597;48.328;7.932;2023-07-20T11:36:58;99235.69;;;31.62;26.73
32083;BME280;18597;48.328;7.932;2023-07-20T11:39:24;99237.09;;;31.34;26.84
32083;BME280;18597;48.328;7.932;2023-07-20T11:41:54;99233.47;;;30.88;27.45
32083;BME280;18597;48.328;7.932;2023-07-20T11:44:26;99229.06;;;30.87;28.05
32083;BME280;18597;48.328;7.932;2023-07-20T11:47:10;99218.56;;;30.89;29.61
32083;BME280;18597;48.328;7.932;2023-07-20T11:49:40;99227.13;;;31.18;28.00
32083;BME280;18597;48.328;7.932;2023-07-20T11:52:11;99229.94;;;31.23;28.81
32083;BME280;18597;48.328;7.932;2023-07-20T11:54:41;99229.09;;;31.28;27.21
32083;BME280;18597;48.328;7.932;2023-07-20T11:57:16;99231.84;;;31.17;27.36
32083;BME280;18597;48.328;7.932;2023-07-20T12:00:03;99222.19;;;31.10;27.41
32083;BME280;18597;48.328;7.932;2023-07-20T12:02:38;99226.31;;;31.02;27.91
32083;BME280;18597;48.328;7.932;2023-07-20T12:05:05;99224.13;;;31.25;28.06
32083;BME280;18597;48.328;7.932;2023-07-20T12:07:36;99216.13;;;31.38;26.76
32083;BME280;18597;48.328;7.932;2023-07-20T12:10:06;99210.31;;;31.45;26.76
32083;BME280;18597;48.328;7.932;2023-07-20T12:12:34;99212.78;;;31.67;26.32
32083;BME280;18597;48.328;7.932;2023-07-20T12:18:01;99193.19;;;31.48;26.16
32083;BME280;18597;48.328;7.932;2023-07-20T12:20:43;99191.56;;;31.37;26.01
32083;BME280;18597;48.328;7.932;2023-07-20T12:23:11;99195.97;;;31.38;25.91
32083;BME280;18597;48.328;7.932;2023-07-20T12:25:40;99198.16;;;31.36;26.24
32083;BME280;18597;48.328;7.932;2023-07-20T12:28:10;99198.75;;;31.23;26.30
32083;BME280;18597;48.328;7.932;2023-07-20T12:30:37;99198.19;;;31.15;26.37
32083;BME280;18597;48.328;7.932;2023-07-20T12:33:04;99195.97;;;31.17;26.09
32083;BME280;18597;48.328;7.932;2023-07-20T12:35:31;99190.19;;;31.14;26.93
32083;BME280;18597;48.328;7.932;2023-07-20T12:37:57;99187.13;;;31.20;26.68
32083;BME280;18597;48.328;7.932;2023-07-20T12:40:24;99185.47;;;31.45;26.47
32083;BME280;18597;48.328;7.932;2023-07-20T12:42:50;99179.41;;;31.48;26.75
32083;BME280;18597;48.328;7.932;2023-07-20T12:45:16;99176.34;;;31.49;26.73
32083;BME280;18597;48.328;7.932;2023-07-20T12:47:42;99176.91;;;31.41;25.62
32083;BME280;18597;48.328;7.932;2023-07-20T12:50:10;99174.44;;;31.09;26.38
32083;BME280;18597;48.328;7.932;2023-07-20T12:52:37;99178.03;;;31.05;26.40
32083;BME280;18597;48.328;7.932;2023-07-20T12:55:06;99167.56;;;30.91;26.11
32083;BME280;18597;48.328;7.932;2023-07-20T12:57:35;99171.41;;;30.90;26.99
32083;BME280;18597;48.328;7.932;2023-07-20T13:00:03;99165.06;;;31.00;26.51
32083;BME280;18597;48.328;7.932;2023-07-20T13:02:32;99163.97;;;30.86;26.66
32083;BME280;18597;48.328;7.932;2023-07-20T13:04:58;99169.22;;;30.77;26.35
32083;BME280;18597;48.328;7.932;2023-07-20T13:07:34;99152.88;;;30.60;26.66
32083;BME280;18597;48.328;7.932;2023-07-20T13:10:01;99155.97;;;30.69;27.55
32083;BME280;18597;48.328;7.932;2023-07-20T13:12:29;99155.41;;;30.72;26.18
32083;BME280;18597;48.328;7.932;2023-07-20T13:14:55;99157.91;;;30.84;26.62